createdAt,value
2018-12-13T00:01:52.687Z,102449.31
2018-12-13T00:04:21.957Z,102440.69
2018-12-13T00:06:51.394Z,102436.26
2018-12-13T00:09:21.685Z,102442.17
2018-12-13T00:11:51.434Z,102439.45
2018-12-13T00:14:21.292Z,102445.11
2018-12-13T00:17:04.706Z,102437.11
2018-12-13T00:19:33.600Z,102440.42
2018-12-13T00:22:03.149Z,102438.05
2018-12-13T00:24:31.909Z,102437.70
2018-12-13T00:27:01.632Z,102437.70
2018-12-13T00:29:30.568Z,102438.55
2018-12-13T00:32:07.473Z,102435.33
2018-12-13T00:34:36.900Z,102438.55
2018-12-13T00:37:07.074Z,102436.85
2018-12-13T00:39:36.714Z,102444.50
2018-12-13T00:42:05.471Z,102432.92
2018-12-13T00:44:34.206Z,102439.22
2018-12-13T00:47:03.088Z,102435.47
2018-12-13T00:49:31.825Z,102431.59
2018-12-13T00:52:01.664Z,102441.50
2018-12-13T00:54:30.566Z,102433.41
2018-12-13T00:57:00.000Z,102439.64
2018-12-13T00:59:29.560Z,102436.16
2018-12-13T01:01:59.045Z,102436.33
2018-12-13T01:04:28.925Z,102438.02
2018-12-13T01:06:58.597Z,102444.15
2018-12-13T01:09:28.956Z,102431.34
2018-12-13T01:11:57.784Z,102435.69
2018-12-13T01:14:27.699Z,102438.80
2018-12-13T01:16:56.461Z,102439.35
2018-12-13T01:19:27.601Z,102429.27
2018-12-13T01:21:57.240Z,102439.14
2018-12-13T01:24:27.110Z,102434.72
2018-12-13T01:26:56.602Z,102436.25
2018-12-13T01:29:25.393Z,102428.98
2018-12-13T01:31:54.163Z,102429.81
2018-12-13T01:34:29.882Z,102436.52
2018-12-13T01:36:59.282Z,102428.23
2018-12-13T01:39:29.445Z,102438.95
2018-12-13T01:41:58.448Z,102429.55
2018-12-13T01:44:29.540Z,102425.85
2018-12-13T01:46:58.463Z,102433.59
2018-12-13T01:49:27.318Z,102437.08
2018-12-13T01:51:56.934Z,102429.42
2018-12-13T01:54:26.942Z,102437.93
2018-12-13T01:56:55.719Z,102440.27
2018-12-13T01:59:25.727Z,102439.34
2018-12-13T02:01:55.365Z,102437.46
2018-12-13T02:04:25.315Z,102441.89
2018-12-13T02:06:58.695Z,102446.40
2018-12-13T02:09:26.150Z,102442.52
2018-12-13T02:11:54.860Z,102447.44
2018-12-13T02:14:23.672Z,102448.12
2018-12-13T02:16:53.502Z,102441.52
2018-12-13T02:19:22.256Z,102456.41
2018-12-13T02:21:51.799Z,102447.73
2018-12-13T02:24:20.800Z,102453.48
2018-12-13T02:26:49.748Z,102455.36
2018-12-13T02:29:18.846Z,102453.36
2018-12-13T02:31:47.602Z,102457.12
2018-12-13T02:34:17.497Z,102446.48
2018-12-13T02:36:46.323Z,102448.56
2018-12-13T02:39:15.199Z,102441.70
2018-12-13T02:41:43.967Z,102439.64
2018-12-13T02:44:13.322Z,102440.84
2018-12-13T02:46:42.060Z,102434.53
2018-12-13T02:51:46.325Z,102434.45
2018-12-13T02:54:15.180Z,102431.34
2018-12-13T02:56:43.915Z,102432.92
2018-12-13T02:59:13.186Z,102427.58
2018-12-13T03:01:43.072Z,102434.70
2018-12-13T03:04:12.597Z,102429.81
2018-12-13T03:06:41.310Z,102428.88
2018-12-13T03:09:10.940Z,102421.81
2018-12-13T03:11:39.833Z,102422.66
2018-12-13T03:14:09.572Z,102430.58
2018-12-13T03:16:38.940Z,102432.45
2018-12-13T03:19:07.683Z,102434.83
2018-12-13T03:21:36.524Z,102431.04
2018-12-13T03:24:05.386Z,102430.66
2018-12-13T03:26:34.159Z,102425.30
2018-12-13T03:29:03.014Z,102427.46
2018-12-13T03:31:31.862Z,102425.38
2018-12-13T03:34:01.521Z,102429.17
2018-12-13T03:36:30.338Z,102422.20
2018-12-13T03:38:59.347Z,102420.97
2018-12-13T03:41:28.189Z,102421.52
2018-12-13T03:43:57.763Z,102422.75
2018-12-13T03:46:26.657Z,102425.95
2018-12-13T03:48:55.370Z,102424.52
2018-12-13T03:51:24.849Z,102419.63
2018-12-13T03:53:53.585Z,102424.05
2018-12-13T03:56:22.328Z,102426.33
2018-12-13T03:58:51.757Z,102425.28
2018-12-13T04:01:21.726Z,102420.30
2018-12-13T04:03:51.517Z,102415.31
2018-12-13T04:06:20.363Z,102417.19
2018-12-13T04:08:49.944Z,102413.33
2018-12-13T04:11:25.741Z,102416.52
2018-12-13T04:13:54.479Z,102410.02
2018-12-13T04:16:24.392Z,102409.67
2018-12-13T04:18:53.138Z,102407.29
2018-12-13T04:21:21.868Z,102408.34
2018-12-13T04:23:50.701Z,102404.02
2018-12-13T04:26:19.510Z,102413.16
2018-12-13T04:28:48.537Z,102398.83
2018-12-13T04:31:17.979Z,102403.25
2018-12-13T04:33:47.504Z,102406.35
2018-12-13T04:36:16.940Z,102414.09
2018-12-13T04:38:45.667Z,102406.18
2018-12-13T04:41:14.415Z,102414.38
2018-12-13T04:43:43.819Z,102416.16
2018-12-13T04:46:12.681Z,102411.36
2018-12-13T04:48:41.388Z,102411.18
2018-12-13T04:51:12.093Z,102409.65
2018-12-13T04:53:40.874Z,102414.67
2018-12-13T04:56:10.714Z,102417.77
2018-12-13T04:58:39.916Z,102405.41
2018-12-13T05:01:09.132Z,102404.86
2018-12-13T05:03:38.422Z,102412.47
2018-12-13T05:06:08.141Z,102408.43
2018-12-13T05:08:37.532Z,102403.25
2018-12-13T05:11:06.811Z,102399.00
2018-12-13T05:13:35.517Z,102410.80
2018-12-13T05:16:06.179Z,102403.27
2018-12-13T05:18:35.466Z,102410.88
2018-12-13T05:21:05.071Z,102408.06
2018-12-13T05:23:34.365Z,102402.23
2018-12-13T05:26:03.293Z,102401.65
2018-12-13T05:28:32.264Z,102406.55
2018-12-13T05:31:01.207Z,102404.20
2018-12-13T05:33:30.697Z,102403.16
2018-12-13T05:35:59.476Z,102404.56
2018-12-13T05:38:28.213Z,102400.61
2018-12-13T05:40:56.970Z,102407.11
2018-12-13T05:43:28.238Z,102408.05
2018-12-13T05:45:56.920Z,102414.55
2018-12-13T05:48:25.660Z,102402.11
2018-12-13T05:50:54.985Z,102414.55
2018-12-13T05:53:23.717Z,102414.28
2018-12-13T05:55:53.307Z,102420.95
2018-12-13T05:58:22.032Z,102418.88
2018-12-13T06:00:51.359Z,102414.84
2018-12-13T06:03:20.755Z,102423.52
2018-12-13T06:05:51.129Z,102423.13
2018-12-13T06:08:20.667Z,102423.02
2018-12-13T06:10:49.398Z,102425.28
2018-12-13T06:13:18.421Z,102433.19
2018-12-13T06:15:50.284Z,102433.36
2018-12-13T06:18:19.683Z,102435.53
2018-12-13T06:20:48.502Z,102432.90
2018-12-13T06:23:17.466Z,102430.91
2018-12-13T06:25:46.421Z,102434.95
2018-12-13T06:28:16.787Z,102443.53
2018-12-13T06:30:48.868Z,102436.27
2018-12-13T06:33:24.693Z,102436.81
2018-12-13T06:35:49.531Z,102433.71
2018-12-13T06:38:18.446Z,102437.41
2018-12-13T06:40:48.167Z,102437.19
2018-12-13T06:43:17.046Z,102428.52
2018-12-13T06:45:46.981Z,102432.84
2018-12-13T06:48:16.508Z,102430.77
2018-12-13T06:50:46.312Z,102438.20
2018-12-13T06:53:16.697Z,102423.11
2018-12-13T06:55:46.677Z,102430.83
2018-12-13T06:58:16.621Z,102430.78
2018-12-13T07:00:46.004Z,102432.47
2018-12-13T07:03:15.494Z,102429.78
2018-12-13T07:05:45.317Z,102424.81
2018-12-13T07:08:14.966Z,102434.97
2018-12-13T07:10:45.179Z,102439.58
2018-12-13T07:13:14.341Z,102445.47
2018-12-13T07:15:44.040Z,102446.09
2018-12-13T07:18:13.634Z,102441.64
2018-12-13T07:20:43.192Z,102443.51
2018-12-13T07:23:12.155Z,102437.94
2018-12-13T07:25:41.226Z,102441.12
2018-12-13T07:28:10.354Z,102435.94
2018-12-13T07:30:39.441Z,102437.80
2018-12-13T07:33:09.107Z,102438.53
2018-12-13T07:35:38.940Z,102436.52
2018-12-13T07:38:14.098Z,102431.42
2018-12-13T07:40:39.467Z,102429.52
2018-12-13T07:43:08.650Z,102431.38
2018-12-13T07:45:38.886Z,102438.03
2018-12-13T07:48:07.796Z,102438.58
2018-12-13T07:50:37.359Z,102437.27
2018-12-13T07:53:07.292Z,102439.97
2018-12-13T07:55:37.420Z,102435.25
2018-12-13T07:58:06.588Z,102447.55
2018-12-13T08:00:36.379Z,102449.41
2018-12-13T08:03:06.283Z,102442.22
2018-12-13T08:05:40.946Z,102453.97
2018-12-13T08:08:10.698Z,102455.12
2018-12-13T08:10:39.828Z,102458.61
2018-12-13T08:13:09.085Z,102454.32
2018-12-13T08:15:38.804Z,102461.59
2018-12-13T08:18:08.359Z,102463.52
2018-12-13T08:20:37.311Z,102457.06
2018-12-13T08:23:06.333Z,102453.34
2018-12-13T08:25:35.422Z,102460.30
2018-12-13T08:28:04.357Z,102455.43
2018-12-13T08:30:33.510Z,102458.36
2018-12-13T08:33:02.459Z,102460.45
2018-12-13T08:35:32.231Z,102462.65
2018-12-13T08:38:01.208Z,102467.29
2018-12-13T08:40:30.474Z,102458.19
2018-12-13T08:42:59.520Z,102455.47
2018-12-13T08:45:29.433Z,102445.49
2018-12-13T08:47:59.426Z,102458.08
2018-12-13T08:50:28.526Z,102454.67
2018-12-13T08:52:58.996Z,102466.13
2018-12-13T08:55:29.582Z,102460.48
2018-12-13T08:57:58.884Z,102463.20
2018-12-13T09:00:28.929Z,102459.09
2018-12-13T09:05:42.643Z,102456.79
2018-12-13T09:08:11.978Z,102449.50
2018-12-13T09:10:40.846Z,102446.34
2018-12-13T09:13:10.230Z,102448.42
2018-12-13T09:15:39.976Z,102441.98
2018-12-13T09:18:09.521Z,102448.56
2018-12-13T09:20:38.204Z,102448.45
2018-12-13T09:23:07.658Z,102452.59
2018-12-13T09:25:36.475Z,102444.78
2018-12-13T09:28:05.382Z,102449.83
2018-12-13T09:30:34.300Z,102452.92
2018-12-13T09:33:03.348Z,102453.78
2018-12-13T09:35:33.102Z,102450.05
2018-12-13T09:38:02.262Z,102446.86
2018-12-13T09:40:31.346Z,102439.98
2018-12-13T09:43:00.686Z,102441.68
2018-12-13T09:45:30.673Z,102441.40
2018-12-13T09:47:59.628Z,102439.06
2018-12-13T09:50:28.577Z,102439.84
2018-12-13T09:52:58.265Z,102446.55
2018-12-13T09:55:27.149Z,102447.02
2018-12-13T09:57:55.864Z,102446.56
2018-12-13T10:00:25.157Z,102446.03
2018-12-13T10:02:54.560Z,102440.67
2018-12-13T10:05:23.704Z,102440.30
2018-12-13T10:07:52.500Z,102442.20
2018-12-13T10:10:22.113Z,102438.55
2018-12-13T10:12:50.985Z,102431.80
2018-12-13T10:15:20.909Z,102428.19
2018-12-13T10:17:50.448Z,102430.48
2018-12-13T10:20:19.494Z,102424.44
2018-12-13T10:22:48.409Z,102416.50
2018-12-13T10:25:17.151Z,102421.42
2018-12-13T10:27:46.369Z,102421.14
2018-12-13T10:30:15.231Z,102422.49
2018-12-13T10:32:44.096Z,102420.45
2018-12-13T10:35:13.617Z,102419.95
2018-12-13T10:37:42.311Z,102415.73
2018-12-13T10:40:11.177Z,102408.09
2018-12-13T10:42:40.454Z,102401.62
2018-12-13T10:45:10.281Z,102394.91
2018-12-13T10:47:39.654Z,102391.45
2018-12-13T10:50:08.783Z,102391.57
2018-12-13T10:52:38.390Z,102389.11
2018-12-13T10:55:07.251Z,102386.47
2018-12-13T10:57:36.798Z,102383.48
2018-12-13T11:00:09.645Z,102389.98
2018-12-13T11:02:55.731Z,102381.38
2018-12-13T11:05:25.129Z,102391.36
2018-12-13T11:07:53.865Z,102381.11
2018-12-13T11:10:25.510Z,102375.84
2018-12-13T11:12:54.249Z,102379.71
2018-12-13T11:15:23.716Z,102377.92
2018-12-13T11:17:53.640Z,102360.86
2018-12-13T11:20:22.349Z,102372.36
2018-12-13T11:22:51.238Z,102364.83
2018-12-13T11:25:19.981Z,102362.75
2018-12-13T11:31:18.077Z,102378.38
2018-12-13T11:33:47.672Z,102376.02
2018-12-13T11:36:16.967Z,102378.73
2018-12-13T11:38:45.723Z,102370.58
2018-12-13T11:41:14.979Z,102378.36
2018-12-13T11:43:44.703Z,102374.41
2018-12-13T11:46:13.426Z,102371.12
2018-12-13T11:48:42.106Z,102370.56
2018-12-13T11:51:11.614Z,102369.16
2018-12-13T11:53:40.938Z,102370.38
2018-12-13T11:56:09.597Z,102368.05
2018-12-13T11:58:38.295Z,102362.58
2018-12-13T12:01:07.954Z,102364.73
2018-12-13T12:03:37.391Z,102357.95
2018-12-13T12:06:06.740Z,102359.27
2018-12-13T12:08:36.305Z,102361.23
2018-12-13T12:11:05.036Z,102365.41
2018-12-13T12:13:33.776Z,102371.90
2018-12-13T12:16:03.260Z,102369.91
2018-12-13T12:18:33.420Z,102362.48
2018-12-13T12:21:02.241Z,102368.79
2018-12-13T12:23:31.580Z,102378.50
2018-12-13T12:26:02.171Z,102377.83
2018-12-13T12:28:31.342Z,102377.45
2018-12-13T12:31:00.475Z,102371.68
2018-12-13T12:33:30.211Z,102377.43
2018-12-13T12:35:59.116Z,102375.91
2018-12-13T12:38:28.572Z,102376.11
2018-12-13T12:40:57.356Z,102378.92
2018-12-13T12:43:27.257Z,102378.75
2018-12-13T12:45:56.015Z,102380.16
2018-12-13T12:48:26.519Z,102382.59
2018-12-13T12:50:56.472Z,102371.75
2018-12-13T12:53:25.583Z,102370.64
2018-12-13T12:55:54.581Z,102372.13
2018-12-13T12:58:23.757Z,102377.78
2018-12-13T13:00:53.536Z,102378.69
2018-12-13T13:03:23.069Z,102381.78
2018-12-13T13:05:52.442Z,102373.38
2018-12-13T13:08:21.798Z,102377.91
2018-12-13T13:10:50.736Z,102373.11
2018-12-13T13:13:19.656Z,102377.36
2018-12-13T13:15:49.054Z,102381.31
2018-12-13T13:18:18.930Z,102368.70
2018-12-13T13:20:50.485Z,102377.45
2018-12-13T13:23:19.453Z,102384.62
2018-12-13T13:25:48.572Z,102382.37
2018-12-13T13:28:17.312Z,102382.55
2018-12-13T13:30:46.260Z,102384.16
2018-12-13T13:33:16.915Z,102383.23
2018-12-13T13:35:46.235Z,102369.84
2018-12-13T13:38:14.945Z,102385.18
2018-12-13T13:40:43.666Z,102387.98
2018-12-13T13:43:12.435Z,102381.69
2018-12-13T13:45:42.053Z,102385.44
2018-12-13T13:48:10.722Z,102384.33
2018-12-13T13:50:39.451Z,102376.98
2018-12-13T13:53:08.902Z,102381.86
2018-12-13T13:55:37.910Z,102382.03
2018-12-13T13:58:06.653Z,102384.92
2018-12-13T14:00:35.992Z,102381.34
2018-12-13T14:03:05.368Z,102375.95
2018-12-13T14:05:42.535Z,102373.69
2018-12-13T14:08:12.122Z,102376.95
2018-12-13T14:10:40.773Z,102373.92
2018-12-13T14:13:09.493Z,102378.98
2018-12-13T14:15:39.862Z,102381.86
2018-12-13T14:18:09.150Z,102378.45
2018-12-13T14:20:38.076Z,102379.59
2018-12-13T14:23:07.118Z,102377.03
2018-12-13T14:25:36.029Z,102375.97
2018-12-13T14:28:05.038Z,102376.44
2018-12-13T14:30:34.017Z,102376.44
2018-12-13T14:33:04.723Z,102369.55
2018-12-13T14:35:34.291Z,102380.69
2018-12-13T14:38:04.594Z,102377.50
2018-12-13T14:40:33.506Z,102377.42
2018-12-13T14:43:03.516Z,102379.67
2018-12-13T14:45:33.199Z,102375.34
2018-12-13T14:48:03.055Z,102383.92
2018-12-13T14:50:32.364Z,102374.70
2018-12-13T14:53:04.198Z,102368.52
2018-12-13T14:55:33.140Z,102375.83
2018-12-13T14:58:02.903Z,102377.98
2018-12-13T15:00:32.746Z,102384.11
2018-12-13T15:05:53.268Z,102381.86
2018-12-13T15:08:23.008Z,102375.11
2018-12-13T15:10:51.807Z,102368.61
2018-12-13T15:13:20.798Z,102382.67
2018-12-13T15:15:50.963Z,102380.51
2018-12-13T15:18:20.403Z,102379.08
2018-12-13T15:20:49.273Z,102385.87
2018-12-13T15:23:18.133Z,102389.19
2018-12-13T15:25:48.811Z,102377.72
2018-12-13T15:28:17.594Z,102380.66
2018-12-13T15:30:47.545Z,102382.63
2018-12-13T15:33:16.247Z,102385.72
2018-12-13T15:35:45.014Z,102382.16
2018-12-13T15:38:13.784Z,102375.23
2018-12-13T15:40:42.537Z,102377.78
2018-12-13T15:43:11.410Z,102376.47
2018-12-13T15:48:18.271Z,102379.02
2018-12-13T15:50:49.224Z,102377.96
2018-12-13T15:53:18.111Z,102376.17
2018-12-13T15:55:47.226Z,102378.34
2018-12-13T15:58:16.060Z,102379.58
2018-12-13T16:00:45.851Z,102378.72
2018-12-13T16:03:15.115Z,102377.02
2018-12-13T16:05:44.934Z,102371.59
2018-12-13T16:08:14.394Z,102380.42
2018-12-13T16:10:43.094Z,102382.59
2018-12-13T16:13:11.800Z,102381.73
2018-12-13T16:15:41.857Z,102380.59
2018-12-13T16:18:11.265Z,102378.16
2018-12-13T16:20:40.080Z,102370.81
2018-12-13T16:23:08.765Z,102365.72
2018-12-13T16:25:38.938Z,102368.14
2018-12-13T16:28:08.112Z,102372.67
2018-12-13T16:30:37.610Z,102374.92
2018-12-13T16:33:07.045Z,102366.17
2018-12-13T16:35:35.901Z,102364.94
2018-12-13T16:38:04.658Z,102365.03
2018-12-13T16:40:33.815Z,102365.33
2018-12-13T16:43:02.649Z,102349.44
2018-12-13T16:48:17.026Z,102367.29
2018-12-13T16:50:47.188Z,102368.72
2018-12-13T16:53:16.346Z,102369.07
2018-12-13T16:55:45.044Z,102367.02
2018-12-13T16:58:19.381Z,102358.74
2018-12-13T17:03:44.953Z,102355.36
2018-12-13T17:06:15.774Z,102355.56
2018-12-13T17:08:45.515Z,102371.20
2018-12-13T17:14:05.176Z,102355.44
2018-12-13T17:16:34.597Z,102356.02
2018-12-13T17:19:03.461Z,102363.34
2018-12-13T17:21:32.696Z,102362.70
2018-12-13T17:24:01.480Z,102372.77
2018-12-13T17:26:30.224Z,102371.28
2018-12-13T17:28:59.093Z,102371.66
2018-12-13T17:31:28.841Z,102366.39
2018-12-13T17:33:57.685Z,102371.03
2018-12-13T17:36:26.468Z,102371.29
2018-12-13T17:38:55.823Z,102372.14
2018-12-13T17:41:24.590Z,102369.13
2018-12-13T17:43:53.951Z,102366.88
2018-12-13T17:46:23.243Z,102367.64
2018-12-13T17:48:52.137Z,102363.52
2018-12-13T17:51:21.948Z,102373.20
2018-12-13T17:53:50.685Z,102363.59
2018-12-13T17:56:20.260Z,102363.86
2018-12-13T17:58:49.648Z,102378.81
2018-12-13T18:01:18.541Z,102373.55
2018-12-13T18:03:48.027Z,102371.59
2018-12-13T18:06:17.497Z,102367.84
2018-12-13T18:08:47.337Z,102367.30
2018-12-13T18:11:16.087Z,102362.88
2018-12-13T18:13:44.781Z,102362.95
2018-12-13T18:16:14.113Z,102370.31
2018-12-13T18:18:43.620Z,102351.58
2018-12-13T18:21:12.363Z,102365.30
2018-12-13T18:23:41.495Z,102369.17
2018-12-13T18:26:10.233Z,102377.75
2018-12-13T18:28:39.022Z,102376.05
2018-12-13T18:31:07.948Z,102382.16
2018-12-13T18:33:36.645Z,102373.20
2018-12-13T18:36:06.695Z,102374.05
2018-12-13T18:38:35.458Z,102373.49
2018-12-13T18:41:04.216Z,102382.16
2018-12-13T18:43:34.126Z,102385.27
2018-12-13T18:46:03.609Z,102375.28
2018-12-13T18:48:32.705Z,102379.78
2018-12-13T18:51:02.144Z,102380.72
2018-12-13T18:53:30.947Z,102374.98
2018-12-13T18:55:59.726Z,102378.00
2018-12-13T18:58:28.573Z,102378.00
2018-12-13T19:00:57.962Z,102375.28
2018-12-13T19:03:27.263Z,102382.80
2018-12-13T19:05:56.556Z,102385.81
2018-12-13T19:08:26.292Z,102393.89
2018-12-13T19:10:55.111Z,102394.83
2018-12-13T19:13:23.969Z,102392.57
2018-12-13T19:15:53.461Z,102393.04
2018-12-13T19:18:22.718Z,102393.97
2018-12-13T19:20:51.495Z,102393.67
2018-12-13T19:23:20.408Z,102400.56
2018-12-13T19:25:49.228Z,102396.05
2018-12-13T19:28:18.121Z,102392.02
2018-12-13T19:30:47.842Z,102390.79
2018-12-13T19:33:17.484Z,102396.35
2018-12-13T19:35:46.228Z,102395.88
2018-12-13T19:38:14.937Z,102391.38
2018-12-13T19:40:48.341Z,102392.41
2018-12-13T19:43:14.544Z,102392.16
2018-12-13T19:45:44.197Z,102393.94
2018-12-13T19:48:12.957Z,102392.91
2018-12-13T19:50:43.106Z,102398.09
2018-12-13T19:53:12.600Z,102393.09
2018-12-13T19:55:41.434Z,102389.59
2018-12-13T19:58:10.165Z,102393.16
2018-12-13T20:00:39.827Z,102402.85
2018-12-13T20:03:09.209Z,102396.27
2018-12-13T20:05:38.753Z,102398.81
2018-12-13T20:08:08.234Z,102397.38
2018-12-13T20:10:37.952Z,102397.12
2018-12-13T20:13:07.007Z,102402.38
2018-12-13T20:15:36.597Z,102402.77
2018-12-13T20:18:05.972Z,102412.25
2018-12-13T20:20:34.679Z,102399.55
2018-12-13T20:23:03.496Z,102406.60
2018-12-13T20:25:33.592Z,102404.64
2018-12-13T20:28:02.613Z,102401.55
2018-12-13T20:30:32.485Z,102403.24
2018-12-13T20:33:01.517Z,102412.93
2018-12-13T20:35:30.344Z,102411.99
2018-12-13T20:37:59.064Z,102413.14
2018-12-13T20:40:27.963Z,102412.59
2018-12-13T20:42:56.817Z,102409.02
2018-12-13T20:45:26.316Z,102409.19
2018-12-13T20:47:55.038Z,102412.03
2018-12-13T20:50:24.649Z,102420.88
2018-12-13T20:52:54.105Z,102417.27
2018-12-13T20:55:22.829Z,102416.12
2018-12-13T20:57:51.544Z,102416.87
2018-12-13T21:00:21.859Z,102417.89
2018-12-13T21:02:51.316Z,102410.55
2018-12-13T21:05:21.176Z,102410.55
2018-12-13T21:07:52.119Z,102420.52
2018-12-13T21:10:21.467Z,102419.00
2018-12-13T21:12:51.252Z,102414.02
2018-12-13T21:15:21.464Z,102413.63
2018-12-13T21:17:50.908Z,102415.50
2018-12-13T21:20:20.590Z,102413.03
2018-12-13T21:23:52.096Z,102416.98
2018-12-13T21:26:20.906Z,102414.27
2018-12-13T21:28:50.796Z,102421.23
2018-12-13T21:31:22.518Z,102413.50
2018-12-13T21:33:51.328Z,102413.67
2018-12-13T21:36:20.546Z,102408.02
2018-12-13T21:38:49.421Z,102410.95
2018-12-13T21:41:18.316Z,102409.08
2018-12-13T21:43:48.759Z,102411.08
2018-12-13T21:46:18.059Z,102415.11
2018-12-13T21:48:46.831Z,102419.62
2018-12-13T21:51:16.432Z,102418.30
2018-12-13T21:53:53.572Z,102416.81
2018-12-13T21:56:22.308Z,102408.53
2018-12-13T21:58:51.667Z,102415.97
2018-12-13T22:01:20.492Z,102419.53
2018-12-13T22:03:49.761Z,102420.38
2018-12-13T22:06:20.086Z,102417.45
2018-12-13T22:08:49.584Z,102423.35
2018-12-13T22:11:20.035Z,102407.37
2018-12-13T22:13:49.011Z,102412.72
2018-12-13T22:16:18.671Z,102415.81
2018-12-13T22:18:49.833Z,102411.41
2018-12-13T22:21:18.598Z,102412.80
2018-12-13T22:23:47.331Z,102408.55
2018-12-13T22:26:16.954Z,102404.77
2018-12-13T22:28:45.802Z,102408.64
2018-12-13T22:31:14.462Z,102400.52
2018-12-13T22:33:43.484Z,102403.92
2018-12-13T22:36:12.206Z,102411.73
2018-12-13T22:38:41.143Z,102411.66
2018-12-13T22:41:09.871Z,102411.81
2018-12-13T22:43:39.358Z,102410.50
2018-12-13T22:46:08.092Z,102412.03
2018-12-13T22:48:37.285Z,102414.97
2018-12-13T22:51:07.005Z,102415.90
2018-12-13T22:53:36.352Z,102413.95
2018-12-13T22:56:05.052Z,102415.53
2018-12-13T22:58:35.308Z,102414.98
2018-12-13T23:01:04.012Z,102414.34
2018-12-13T23:03:33.652Z,102420.68
2018-12-13T23:06:03.183Z,102421.62
2018-12-13T23:08:32.818Z,102412.48
2018-12-13T23:11:01.951Z,102415.67
2018-12-13T23:13:31.456Z,102413.20
2018-12-13T23:16:01.546Z,102420.72
2018-12-13T23:18:31.269Z,102415.84
2018-12-13T23:21:00.448Z,102419.70
2018-12-13T23:23:30.374Z,102411.25
2018-12-13T23:25:59.222Z,102406.37
2018-12-13T23:28:58.586Z,102414.27
2018-12-13T23:31:27.306Z,102407.55
2018-12-13T23:33:56.146Z,102410.39
2018-12-13T23:36:24.868Z,102417.15
2018-12-13T23:38:53.657Z,102410.41
2018-12-13T23:41:22.461Z,102412.78
2018-12-13T23:43:55.231Z,102412.02
2018-12-13T23:46:23.949Z,102417.97
2018-12-13T23:48:52.655Z,102419.36
2018-12-13T23:51:22.404Z,102415.88
2018-12-13T23:53:51.191Z,102407.13
2018-12-13T23:56:20.127Z,102411.72
2018-12-13T23:58:49.656Z,102410.48
